sensor_id;sensor_type;location;lat;lon;timestamp;temperature;humidity
12714;DHT22;6421;44.470;11.270;2022-09-09T00:01:33;21.20;99.90
12714;DHT22;6421;44.470;11.270;2022-09-09T00:03:49;21.10;99.90
12714;DHT22;6421;44.470;11.270;2022-09-09T00:06:24;21.10;99.90
12714;DHT22;6421;44.470;11.270;2022-09-09T00:09:18;21.00;99.90
12714;DHT22;6421;44.470;11.270;2022-09-09T00:14:20;21.00;99.90
12714;DHT22;6421;44.470;11.270;2022-09-09T00:16:54;21.00;99.90
12714;DHT22;6421;44.470;11.270;2022-09-09T00:19:37;21.00;99.90
12714;DHT22;6421;44.470;11.270;2022-09-09T00:22:17;20.90;99.90
12714;DHT22;6421;44.470;11.270;2022-09-09T00:24:46;20.90;99.90
12714;DHT22;6421;44.470;11.270;2022-09-09T00:27:19;20.90;99.90
12714;DHT22;6421;44.470;11.270;2022-09-09T00:29:53;20.80;99.90
12714;DHT22;6421;44.470;11.270;2022-09-09T00:32:20;20.80;99.90
12714;DHT22;6421;44.470;11.270;2022-09-09T00:34:53;20.70;99.90
12714;DHT22;6421;44.470;11.270;2022-09-09T00:37:22;20.70;99.90
12714;DHT22;6421;44.470;11.270;2022-09-09T00:39:53;20.70;99.90
12714;DHT22;6421;44.470;11.270;2022-09-09T00:55:45;20.50;99.90
12714;DHT22;6421;44.470;11.270;2022-09-09T00:58:14;20.50;99.90
12714;DHT22;6421;44.470;11.270;2022-09-09T01:03:46;20.40;99.90
12714;DHT22;6421;44.470;11.270;2022-09-09T01:06:35;20.40;99.90
12714;DHT22;6421;44.470;11.270;2022-09-09T01:09:24;20.30;99.90
12714;DHT22;6421;44.470;11.270;2022-09-09T01:17:26;20.10;99.90
12714;DHT22;6421;44.470;11.270;2022-09-09T01:25:56;20.00;99.90
12714;DHT22;6421;44.470;11.270;2022-09-09T01:28:18;20.10;99.90
12714;DHT22;6421;44.470;11.270;2022-09-09T01:33:15;20.00;99.90
12714;DHT22;6421;44.470;11.270;2022-09-09T01:38:17;20.00;99.90
12714;DHT22;6421;44.470;11.270;2022-09-09T01:45:36;20.00;99.90
12714;DHT22;6421;44.470;11.270;2022-09-09T01:50:29;19.90;99.90
12714;DHT22;6421;44.470;11.270;2022-09-09T01:52:58;19.90;99.90
12714;DHT22;6421;44.470;11.270;2022-09-09T01:55:32;19.90;99.90
12714;DHT22;6421;44.470;11.270;2022-09-09T02:03:57;20.00;99.90
12714;DHT22;6421;44.470;11.270;2022-09-09T02:06:37;19.90;99.90
12714;DHT22;6421;44.470;11.270;2022-09-09T02:09:06;19.90;99.90
12714;DHT22;6421;44.470;11.270;2022-09-09T02:11:33;19.10;99.90
12714;DHT22;6421;44.470;11.270;2022-09-09T02:14:27;19.90;99.90
12714;DHT22;6421;44.470;11.270;2022-09-09T02:17:01;19.80;99.90
12714;DHT22;6421;44.470;11.270;2022-09-09T02:19:39;19.80;99.90
12714;DHT22;6421;44.470;11.270;2022-09-09T02:22:06;19.80;99.90
12714;DHT22;6421;44.470;11.270;2022-09-09T02:24:39;19.80;99.90
12714;DHT22;6421;44.470;11.270;2022-09-09T02:27:08;19.70;99.90
12714;DHT22;6421;44.470;11.270;2022-09-09T02:29:37;19.70;99.90
12714;DHT22;6421;44.470;11.270;2022-09-09T02:32:06;19.70;99.90
12714;DHT22;6421;44.470;11.270;2022-09-09T02:34:36;19.50;99.90
12714;DHT22;6421;44.470;11.270;2022-09-09T02:37:06;19.60;99.90
12714;DHT22;6421;44.470;11.270;2022-09-09T02:39:33;19.40;99.90
12714;DHT22;6421;44.470;11.270;2022-09-09T02:41:59;19.40;99.90
12714;DHT22;6421;44.470;11.270;2022-09-09T02:44:25;19.30;99.90
12714;DHT22;6421;44.470;11.270;2022-09-09T02:50:15;19.30;99.90
12714;DHT22;6421;44.470;11.270;2022-09-09T02:57:55;19.10;99.90
12714;DHT22;6421;44.470;11.270;2022-09-09T03:00:24;19.20;99.90
12714;DHT22;6421;44.470;11.270;2022-09-09T03:02:50;19.10;99.90
12714;DHT22;6421;44.470;11.270;2022-09-09T03:39:24;18.90;99.90
12714;DHT22;6421;44.470;11.270;2022-09-09T03:56:30;18.90;99.90
12714;DHT22;6421;44.470;11.270;2022-09-09T04:01:23;18.90;99.90
12714;DHT22;6421;44.470;11.270;2022-09-09T04:03:48;18.90;99.90
12714;DHT22;6421;44.470;11.270;2022-09-09T04:08:43;18.80;99.90
12714;DHT22;6421;44.470;11.270;2022-09-09T04:13:36;18.80;99.90
12714;DHT22;6421;44.470;11.270;2022-09-09T04:16:06;18.80;99.90
12714;DHT22;6421;44.470;11.270;2022-09-09T04:18:32;18.80;99.90
12714;DHT22;6421;44.470;11.270;2022-09-09T04:20:58;18.90;99.90
12714;DHT22;6421;44.470;11.270;2022-09-09T04:23:25;18.70;99.90
12714;DHT22;6421;44.470;11.270;2022-09-09T04:25:54;18.70;99.90
12714;DHT22;6421;44.470;11.270;2022-09-09T04:28:21;18.70;99.90
12714;DHT22;6421;44.470;11.270;2022-09-09T04:30:48;18.60;99.90
12714;DHT22;6421;44.470;11.270;2022-09-09T04:33:14;18.60;99.90
12714;DHT22;6421;44.470;11.270;2022-09-09T04:35:45;18.60;99.90
12714;DHT22;6421;44.470;11.270;2022-09-09T04:38:11;18.60;99.90
12714;DHT22;6421;44.470;11.270;2022-09-09T04:40:37;18.60;99.90
12714;DHT22;6421;44.470;11.270;2022-09-09T04:43:04;18.60;99.90
12714;DHT22;6421;44.470;11.270;2022-09-09T04:45:30;18.60;99.90
12714;DHT22;6421;44.470;11.270;2022-09-09T04:47:56;18.50;99.90
12714;DHT22;6421;44.470;11.270;2022-09-09T04:50:22;18.50;99.90
12714;DHT22;6421;44.470;11.270;2022-09-09T04:52:48;18.60;99.90
12714;DHT22;6421;44.470;11.270;2022-09-09T04:55:14;18.60;99.90
12714;DHT22;6421;44.470;11.270;2022-09-09T04:57:40;18.50;99.90
12714;DHT22;6421;44.470;11.270;2022-09-09T05:00:06;18.50;99.90
12714;DHT22;6421;44.470;11.270;2022-09-09T05:02:31;18.60;99.90
12714;DHT22;6421;44.470;11.270;2022-09-09T05:04:58;18.60;99.90
12714;DHT22;6421;44.470;11.270;2022-09-09T05:07:23;19.10;99.90
12714;DHT22;6421;44.470;11.270;2022-09-09T05:09:49;18.50;99.90
12714;DHT22;6421;44.470;11.270;2022-09-09T05:12:16;18.50;99.90
12714;DHT22;6421;44.470;11.270;2022-09-09T05:14:44;18.50;99.90
12714;DHT22;6421;44.470;11.270;2022-09-09T05:17:10;18.50;99.90
12714;DHT22;6421;44.470;11.270;2022-09-09T05:19:36;18.50;99.90
12714;DHT22;6421;44.470;11.270;2022-09-09T05:22:02;18.50;99.90
12714;DHT22;6421;44.470;11.270;2022-09-09T05:24:28;18.60;99.90
12714;DHT22;6421;44.470;11.270;2022-09-09T05:26:54;18.70;99.90
12714;DHT22;6421;44.470;11.270;2022-09-09T05:29:25;18.90;99.90
12714;DHT22;6421;44.470;11.270;2022-09-09T05:31:52;19.10;99.90
12714;DHT22;6421;44.470;11.270;2022-09-09T05:34:17;19.30;99.90
12714;DHT22;6421;44.470;11.270;2022-09-09T05:36:43;19.50;99.90
12714;DHT22;6421;44.470;11.270;2022-09-09T05:39:08;19.70;99.90
12714;DHT22;6421;44.470;11.270;2022-09-09T05:41:34;19.80;99.90
12714;DHT22;6421;44.470;11.270;2022-09-09T05:44:01;20.00;99.90
12714;DHT22;6421;44.470;11.270;2022-09-09T05:46:27;20.40;99.90
12714;DHT22;6421;44.470;11.270;2022-09-09T05:48:53;21.00;99.90
12714;DHT22;6421;44.470;11.270;2022-09-09T05:51:21;22.70;99.90
12714;DHT22;6421;44.470;11.270;2022-09-09T05:53:48;26.10;99.90
12714;DHT22;6421;44.470;11.270;2022-09-09T05:56:14;29.10;99.90
12714;DHT22;6421;44.470;11.270;2022-09-09T05:58:40;31.40;99.90
12714;DHT22;6421;44.470;11.270;2022-09-09T06:01:15;32.80;99.90
12714;DHT22;6421;44.470;11.270;2022-09-09T06:03:42;33.90;99.90
12714;DHT22;6421;44.470;11.270;2022-09-09T06:06:11;34.50;99.90
12714;DHT22;6421;44.470;11.270;2022-09-09T06:08:39;35.00;99.90
12714;DHT22;6421;44.470;11.270;2022-09-09T06:11:10;34.10;99.90
12714;DHT22;6421;44.470;11.270;2022-09-09T06:13:37;31.10;99.90
12714;DHT22;6421;44.470;11.270;2022-09-09T06:16:05;29.00;99.90
12714;DHT22;6421;44.470;11.270;2022-09-09T06:18:32;27.50;99.90
12714;DHT22;6421;44.470;11.270;2022-09-09T06:21:00;26.50;99.90
12714;DHT22;6421;44.470;11.270;2022-09-09T06:23:26;25.80;99.90
12714;DHT22;6421;44.470;11.270;2022-09-09T06:26:00;25.30;99.90
12714;DHT22;6421;44.470;11.270;2022-09-09T06:28:26;24.80;99.90
12714;DHT22;6421;44.470;11.270;2022-09-09T06:31:01;24.50;99.90
12714;DHT22;6421;44.470;11.270;2022-09-09T06:33:30;24.20;99.90
12714;DHT22;6421;44.470;11.270;2022-09-09T06:35:56;24.00;99.90
12714;DHT22;6421;44.470;11.270;2022-09-09T06:38:22;23.90;99.90
12714;DHT22;6421;44.470;11.270;2022-09-09T06:40:55;23.80;99.90
12714;DHT22;6421;44.470;11.270;2022-09-09T06:43:25;23.70;99.90
12714;DHT22;6421;44.470;11.270;2022-09-09T06:45:59;23.60;99.90
12714;DHT22;6421;44.470;11.270;2022-09-09T06:48:26;23.50;99.90
12714;DHT22;6421;44.470;11.270;2022-09-09T06:51:04;23.40;99.90
12714;DHT22;6421;44.470;11.270;2022-09-09T06:53:31;23.40;99.90
12714;DHT22;6421;44.470;11.270;2022-09-09T06:56:00;23.30;99.90
12714;DHT22;6421;44.470;11.270;2022-09-09T06:58:27;23.30;99.90
12714;DHT22;6421;44.470;11.270;2022-09-09T07:01:02;23.30;99.90
12714;DHT22;6421;44.470;11.270;2022-09-09T07:03:28;23.30;99.90
12714;DHT22;6421;44.470;11.270;2022-09-09T07:05:55;23.30;99.90
12714;DHT22;6421;44.470;11.270;2022-09-09T07:08:21;23.30;99.90
12714;DHT22;6421;44.470;11.270;2022-09-09T07:10:47;23.30;99.90
12714;DHT22;6421;44.470;11.270;2022-09-09T07:13:13;23.40;99.90
12714;DHT22;6421;44.470;11.270;2022-09-09T07:15:41;23.30;99.90
12714;DHT22;6421;44.470;11.270;2022-09-09T07:18:07;23.30;99.90
12714;DHT22;6421;44.470;11.270;2022-09-09T07:20:32;23.30;99.90
12714;DHT22;6421;44.470;11.270;2022-09-09T07:22:58;23.40;99.90
12714;DHT22;6421;44.470;11.270;2022-09-09T07:25:24;23.40;99.90
12714;DHT22;6421;44.470;11.270;2022-09-09T07:27:53;23.50;99.90
12714;DHT22;6421;44.470;11.270;2022-09-09T07:30:20;23.60;99.90
12714;DHT22;6421;44.470;11.270;2022-09-09T07:32:45;23.70;99.90
12714;DHT22;6421;44.470;11.270;2022-09-09T07:35:11;23.80;99.90
12714;DHT22;6421;44.470;11.270;2022-09-09T07:37:37;23.80;99.90
12714;DHT22;6421;44.470;11.270;2022-09-09T07:40:04;23.90;99.90
12714;DHT22;6421;44.470;11.270;2022-09-09T07:42:30;24.00;99.90
12714;DHT22;6421;44.470;11.270;2022-09-09T07:44:56;24.00;99.90
12714;DHT22;6421;44.470;11.270;2022-09-09T07:47:22;24.10;99.90
12714;DHT22;6421;44.470;11.270;2022-09-09T07:49:50;24.20;99.90
12714;DHT22;6421;44.470;11.270;2022-09-09T07:52:15;24.30;99.90
12714;DHT22;6421;44.470;11.270;2022-09-09T07:54:42;24.30;99.90
12714;DHT22;6421;44.470;11.270;2022-09-09T07:57:07;24.30;99.90
12714;DHT22;6421;44.470;11.270;2022-09-09T07:59:33;24.40;99.90
12714;DHT22;6421;44.470;11.270;2022-09-09T08:01:59;24.40;99.90
12714;DHT22;6421;44.470;11.270;2022-09-09T08:04:25;24.40;99.90
12714;DHT22;6421;44.470;11.270;2022-09-09T08:07:01;24.50;99.90
12714;DHT22;6421;44.470;11.270;2022-09-09T08:09:28;24.50;99.90
12714;DHT22;6421;44.470;11.270;2022-09-09T08:11:55;24.60;99.90
12714;DHT22;6421;44.470;11.270;2022-09-09T08:14:26;24.60;99.90
12714;DHT22;6421;44.470;11.270;2022-09-09T08:16:52;24.60;99.90
12714;DHT22;6421;44.470;11.270;2022-09-09T08:19:19;24.70;99.90
12714;DHT22;6421;44.470;11.270;2022-09-09T08:21:45;24.70;99.90
12714;DHT22;6421;44.470;11.270;2022-09-09T08:24:12;24.70;99.90
12714;DHT22;6421;44.470;11.270;2022-09-09T08:26:41;24.70;99.90
12714;DHT22;6421;44.470;11.270;2022-09-09T08:29:08;24.80;99.90
12714;DHT22;6421;44.470;11.270;2022-09-09T08:31:47;24.80;99.90
12714;DHT22;6421;44.470;11.270;2022-09-09T08:34:13;24.80;99.90
12714;DHT22;6421;44.470;11.270;2022-09-09T08:36:44;25.00;99.90
12714;DHT22;6421;44.470;11.270;2022-09-09T08:39:11;25.20;99.90
12714;DHT22;6421;44.470;11.270;2022-09-09T08:57:55;25.40;99.90
12714;DHT22;6421;44.470;11.270;2022-09-09T09:00:22;25.30;99.90
12714;DHT22;6421;44.470;11.270;2022-09-09T09:03:09;25.40;99.90
12714;DHT22;6421;44.470;11.270;2022-09-09T09:08:43;25.40;99.90
12714;DHT22;6421;44.470;11.270;2022-09-09T09:11:10;25.30;99.90
12714;DHT22;6421;44.470;11.270;2022-09-09T09:13:41;25.40;99.90
12714;DHT22;6421;44.470;11.270;2022-09-09T09:16:31;25.50;99.90
12714;DHT22;6421;44.470;11.270;2022-09-09T09:18:59;25.60;99.90
12714;DHT22;6421;44.470;11.270;2022-09-09T09:21:41;25.70;99.90
12714;DHT22;6421;44.470;11.270;2022-09-09T09:24:18;25.80;99.90
12714;DHT22;6421;44.470;11.270;2022-09-09T09:26:45;25.70;99.90
12714;DHT22;6421;44.470;11.270;2022-09-09T09:29:13;25.80;99.90
12714;DHT22;6421;44.470;11.270;2022-09-09T09:31:52;25.90;99.90
12714;DHT22;6421;44.470;11.270;2022-09-09T09:34:20;25.90;99.90
12714;DHT22;6421;44.470;11.270;2022-09-09T09:36:58;25.90;99.90
12714;DHT22;6421;44.470;11.270;2022-09-09T09:39:33;26.00;99.90
12714;DHT22;6421;44.470;11.270;2022-09-09T09:42:12;25.90;99.90
12714;DHT22;6421;44.470;11.270;2022-09-09T09:44:41;25.80;99.90
12714;DHT22;6421;44.470;11.270;2022-09-09T09:49:33;25.80;99.90
12714;DHT22;6421;44.470;11.270;2022-09-09T09:52:03;25.80;99.90
12714;DHT22;6421;44.470;11.270;2022-09-09T09:54:37;25.80;99.90
12714;DHT22;6421;44.470;11.270;2022-09-09T09:57:11;25.80;99.90
12714;DHT22;6421;44.470;11.270;2022-09-09T09:59:38;25.80;99.90
12714;DHT22;6421;44.470;11.270;2022-09-09T10:02:24;25.80;99.90
12714;DHT22;6421;44.470;11.270;2022-09-09T10:05:22;26.00;99.90
12714;DHT22;6421;44.470;11.270;2022-09-09T10:07:59;26.00;99.90
12714;DHT22;6421;44.470;11.270;2022-09-09T10:11:15;25.90;99.90
12714;DHT22;6421;44.470;11.270;2022-09-09T10:13:23;26.30;99.90
12714;DHT22;6421;44.470;11.270;2022-09-09T10:16:01;25.90;99.90
12714;DHT22;6421;44.470;11.270;2022-09-09T10:18:58;25.80;99.90
12714;DHT22;6421;44.470;11.270;2022-09-09T10:29:53;25.80;99.90
12714;DHT22;6421;44.470;11.270;2022-09-09T10:35:09;25.80;99.90
12714;DHT22;6421;44.470;11.270;2022-09-09T10:38:05;25.80;99.90
12714;DHT22;6421;44.470;11.270;2022-09-09T10:46:17;26.10;99.90
12714;DHT22;6421;44.470;11.270;2022-09-09T10:56:35;26.40;99.90
12714;DHT22;6421;44.470;11.270;2022-09-09T11:01:37;26.40;99.90
12714;DHT22;6421;44.470;11.270;2022-09-09T11:04:24;26.60;99.90
12714;DHT22;6421;44.470;11.270;2022-09-09T11:06:54;26.50;99.90
12714;DHT22;6421;44.470;11.270;2022-09-09T11:09:35;26.50;99.90
12714;DHT22;6421;44.470;11.270;2022-09-09T11:12:02;26.50;99.90
12714;DHT22;6421;44.470;11.270;2022-09-09T11:14:36;26.50;99.90
12714;DHT22;6421;44.470;11.270;2022-09-09T11:17:26;26.50;99.90
12714;DHT22;6421;44.470;11.270;2022-09-09T11:19:53;26.50;99.90
12714;DHT22;6421;44.470;11.270;2022-09-09T11:22:30;26.50;99.90
12714;DHT22;6421;44.470;11.270;2022-09-09T11:25:16;26.70;99.90
12714;DHT22;6421;44.470;11.270;2022-09-09T11:27:49;27.00;99.90
12714;DHT22;6421;44.470;11.270;2022-09-09T11:30:22;27.10;99.90
12714;DHT22;6421;44.470;11.270;2022-09-09T11:35:29;27.10;99.90
12714;DHT22;6421;44.470;11.270;2022-09-09T11:38:26;26.90;99.90
12714;DHT22;6421;44.470;11.270;2022-09-09T11:41:05;26.90;99.90
12714;DHT22;6421;44.470;11.270;2022-09-09T11:43:46;26.90;99.90
12714;DHT22;6421;44.470;11.270;2022-09-09T11:46:14;26.80;99.90
12714;DHT22;6421;44.470;11.270;2022-09-09T11:48:43;26.80;99.90
12714;DHT22;6421;44.470;11.270;2022-09-09T11:53:49;26.90;99.90
12714;DHT22;6421;44.470;11.270;2022-09-09T11:56:25;27.00;99.90
12714;DHT22;6421;44.470;11.270;2022-09-09T11:59:03;27.00;99.90
12714;DHT22;6421;44.470;11.270;2022-09-09T12:04:09;27.10;99.90
12714;DHT22;6421;44.470;11.270;2022-09-09T12:06:58;27.30;99.90
12714;DHT22;6421;44.470;11.270;2022-09-09T12:09:46;27.30;99.90
12714;DHT22;6421;44.470;11.270;2022-09-09T12:19:40;27.50;99.90
12714;DHT22;6421;44.470;11.270;2022-09-09T12:22:58;27.60;99.90
12714;DHT22;6421;44.470;11.270;2022-09-09T12:27:43;27.90;99.90
12714;DHT22;6421;44.470;11.270;2022-09-09T12:30:13;27.80;99.90
12714;DHT22;6421;44.470;11.270;2022-09-09T12:32:40;27.80;99.90
12714;DHT22;6421;44.470;11.270;2022-09-09T12:35:13;27.80;99.90
12714;DHT22;6421;44.470;11.270;2022-09-09T12:37:52;27.80;99.90
12714;DHT22;6421;44.470;11.270;2022-09-09T12:40:30;27.80;99.90
12714;DHT22;6421;44.470;11.270;2022-09-09T12:42:58;27.80;99.90
12714;DHT22;6421;44.470;11.270;2022-09-09T12:45:30;27.70;99.90
12714;DHT22;6421;44.470;11.270;2022-09-09T12:48:00;27.80;99.90
12714;DHT22;6421;44.470;11.270;2022-09-09T12:50:35;27.90;99.90
12714;DHT22;6421;44.470;11.270;2022-09-09T12:53:06;28.00;99.90
12714;DHT22;6421;44.470;11.270;2022-09-09T12:55:36;28.00;99.90
12714;DHT22;6421;44.470;11.270;2022-09-09T12:58:04;28.00;99.90
12714;DHT22;6421;44.470;11.270;2022-09-09T13:00:32;27.90;99.90
12714;DHT22;6421;44.470;11.270;2022-09-09T13:03:00;27.70;99.90
12714;DHT22;6421;44.470;11.270;2022-09-09T13:05:37;27.60;99.90
12714;DHT22;6421;44.470;11.270;2022-09-09T13:08:08;27.50;99.90
12714;DHT22;6421;44.470;11.270;2022-09-09T13:10:50;27.30;99.90
12714;DHT22;6421;44.470;11.270;2022-09-09T13:13:27;27.30;99.90
12714;DHT22;6421;44.470;11.270;2022-09-09T13:15:59;27.30;99.90
12714;DHT22;6421;44.470;11.270;2022-09-09T13:18:29;27.30;99.90
12714;DHT22;6421;44.470;11.270;2022-09-09T13:20:56;27.20;99.90
12714;DHT22;6421;44.470;11.270;2022-09-09T13:23:27;27.20;99.90
12714;DHT22;6421;44.470;11.270;2022-09-09T13:26:20;27.10;99.90
12714;DHT22;6421;44.470;11.270;2022-09-09T13:28:43;27.30;99.90
12714;DHT22;6421;44.470;11.270;2022-09-09T13:33:49;27.50;99.90
12714;DHT22;6421;44.470;11.270;2022-09-09T13:36:31;27.60;99.90
12714;DHT22;6421;44.470;11.270;2022-09-09T13:38:58;27.70;99.90
12714;DHT22;6421;44.470;11.270;2022-09-09T13:41:35;27.80;99.90
12714;DHT22;6421;44.470;11.270;2022-09-09T13:44:02;27.80;99.90
12714;DHT22;6421;44.470;11.270;2022-09-09T13:46:37;27.80;99.90
12714;DHT22;6421;44.470;11.270;2022-09-09T13:52:03;27.80;99.90
12714;DHT22;6421;44.470;11.270;2022-09-09T13:54:28;27.80;99.90
12714;DHT22;6421;44.470;11.270;2022-09-09T13:56:56;27.90;99.90
12714;DHT22;6421;44.470;11.270;2022-09-09T13:59:21;27.80;99.90
12714;DHT22;6421;44.470;11.270;2022-09-09T14:01:47;27.80;99.90
12714;DHT22;6421;44.470;11.270;2022-09-09T14:04:14;27.80;99.90
12714;DHT22;6421;44.470;11.270;2022-09-09T14:06:41;27.80;99.90
12714;DHT22;6421;44.470;11.270;2022-09-09T14:09:10;27.70;99.90
12714;DHT22;6421;44.470;11.270;2022-09-09T14:11:37;27.60;99.90
12714;DHT22;6421;44.470;11.270;2022-09-09T14:14:03;27.60;99.90
12714;DHT22;6421;44.470;11.270;2022-09-09T14:16:29;27.50;99.90
12714;DHT22;6421;44.470;11.270;2022-09-09T14:18:55;27.50;99.90
12714;DHT22;6421;44.470;11.270;2022-09-09T14:21:22;27.40;99.90
12714;DHT22;6421;44.470;11.270;2022-09-09T14:23:48;27.40;99.90
12714;DHT22;6421;44.470;11.270;2022-09-09T14:26:14;27.40;99.90
12714;DHT22;6421;44.470;11.270;2022-09-09T14:28:39;27.30;99.90
12714;DHT22;6421;44.470;11.270;2022-09-09T14:31:06;27.40;99.90
12714;DHT22;6421;44.470;11.270;2022-09-09T14:33:31;27.40;99.90
12714;DHT22;6421;44.470;11.270;2022-09-09T14:36:02;27.30;99.90
12714;DHT22;6421;44.470;11.270;2022-09-09T14:38:35;27.30;99.90
12714;DHT22;6421;44.470;11.270;2022-09-09T14:41:10;27.20;99.90
12714;DHT22;6421;44.470;11.270;2022-09-09T14:43:38;27.20;99.90
12714;DHT22;6421;44.470;11.270;2022-09-09T14:46:12;27.10;99.90
12714;DHT22;6421;44.470;11.270;2022-09-09T14:48:39;27.00;99.90
12714;DHT22;6421;44.470;11.270;2022-09-09T14:51:18;27.00;99.90
12714;DHT22;6421;44.470;11.270;2022-09-09T14:53:45;26.90;99.90
12714;DHT22;6421;44.470;11.270;2022-09-09T14:56:16;26.70;99.90
12714;DHT22;6421;44.470;11.270;2022-09-09T14:58:43;26.70;99.90
12714;DHT22;6421;44.470;11.270;2022-09-09T15:01:11;26.50;99.90
12714;DHT22;6421;44.470;11.270;2022-09-09T15:03:41;26.50;99.90
12714;DHT22;6421;44.470;11.270;2022-09-09T15:06:11;26.30;99.90
12714;DHT22;6421;44.470;11.270;2022-09-09T15:08:39;26.20;99.90
12714;DHT22;6421;44.470;11.270;2022-09-09T15:11:06;26.00;99.90
12714;DHT22;6421;44.470;11.270;2022-09-09T15:13:36;25.80;99.90
12714;DHT22;6421;44.470;11.270;2022-09-09T15:16:16;25.70;99.90
12714;DHT22;6421;44.470;11.270;2022-09-09T15:18:43;25.50;99.90
12714;DHT22;6421;44.470;11.270;2022-09-09T15:21:17;25.30;99.90
12714;DHT22;6421;44.470;11.270;2022-09-09T15:23:44;25.20;99.90
12714;DHT22;6421;44.470;11.270;2022-09-09T15:26:10;25.10;99.90
12714;DHT22;6421;44.470;11.270;2022-09-09T15:28:37;25.10;99.90
12714;DHT22;6421;44.470;11.270;2022-09-09T15:31:17;25.00;99.90
12714;DHT22;6421;44.470;11.270;2022-09-09T15:33:49;25.00;99.90
12714;DHT22;6421;44.470;11.270;2022-09-09T15:36:22;25.00;99.90
12714;DHT22;6421;44.470;11.270;2022-09-09T15:38:48;25.00;99.90
12714;DHT22;6421;44.470;11.270;2022-09-09T15:41:14;25.00;99.90
12714;DHT22;6421;44.470;11.270;2022-09-09T15:43:45;24.90;99.90
12714;DHT22;6421;44.470;11.270;2022-09-09T15:48:43;24.80;99.90
12714;DHT22;6421;44.470;11.270;2022-09-09T15:51:10;24.80;99.90
12714;DHT22;6421;44.470;11.270;2022-09-09T15:53:37;24.70;99.90
12714;DHT22;6421;44.470;11.270;2022-09-09T15:56:05;24.70;99.90
12714;DHT22;6421;44.470;11.270;2022-09-09T15:58:32;24.60;99.90
12714;DHT22;6421;44.470;11.270;2022-09-09T16:01:05;24.60;99.90
12714;DHT22;6421;44.470;11.270;2022-09-09T16:03:37;24.50;99.90
12714;DHT22;6421;44.470;11.270;2022-09-09T16:06:04;24.50;99.90
12714;DHT22;6421;44.470;11.270;2022-09-09T16:08:34;24.50;99.90
12714;DHT22;6421;44.470;11.270;2022-09-09T16:11:07;24.40;99.90
12714;DHT22;6421;44.470;11.270;2022-09-09T16:13:35;24.40;99.90
12714;DHT22;6421;44.470;11.270;2022-09-09T16:16:02;24.40;99.90
12714;DHT22;6421;44.470;11.270;2022-09-09T16:18:34;24.30;99.90
12714;DHT22;6421;44.470;11.270;2022-09-09T16:21:00;24.20;99.90
12714;DHT22;6421;44.470;11.270;2022-09-09T16:23:26;24.10;99.90
12714;DHT22;6421;44.470;11.270;2022-09-09T16:25:55;24.10;99.90
12714;DHT22;6421;44.470;11.270;2022-09-09T16:28:21;24.00;99.90
12714;DHT22;6421;44.470;11.270;2022-09-09T16:30:48;24.00;99.90
12714;DHT22;6421;44.470;11.270;2022-09-09T16:33:13;24.00;99.90
12714;DHT22;6421;44.470;11.270;2022-09-09T16:35:42;24.00;99.90
12714;DHT22;6421;44.470;11.270;2022-09-09T16:38:08;23.90;99.90
12714;DHT22;6421;44.470;11.270;2022-09-09T16:40:35;23.80;99.90
12714;DHT22;6421;44.470;11.270;2022-09-09T16:43:02;23.70;99.90
12714;DHT22;6421;44.470;11.270;2022-09-09T16:45:27;23.70;99.90
12714;DHT22;6421;44.470;11.270;2022-09-09T16:47:53;23.60;99.90
12714;DHT22;6421;44.470;11.270;2022-09-09T16:50:19;23.50;99.90
12714;DHT22;6421;44.470;11.270;2022-09-09T16:52:45;23.50;99.90
12714;DHT22;6421;44.470;11.270;2022-09-09T16:55:10;23.40;99.90
12714;DHT22;6421;44.470;11.270;2022-09-09T16:57:36;23.30;99.90
12714;DHT22;6421;44.470;11.270;2022-09-09T17:00:04;23.20;99.90
12714;DHT22;6421;44.470;11.270;2022-09-09T17:02:31;23.10;99.90
12714;DHT22;6421;44.470;11.270;2022-09-09T17:04:57;23.10;99.90
12714;DHT22;6421;44.470;11.270;2022-09-09T17:07:23;23.00;99.90
12714;DHT22;6421;44.470;11.270;2022-09-09T17:09:48;23.00;99.90
12714;DHT22;6421;44.470;11.270;2022-09-09T17:12:14;22.90;99.90
12714;DHT22;6421;44.470;11.270;2022-09-09T17:14:41;22.90;99.90
12714;DHT22;6421;44.470;11.270;2022-09-09T17:17:07;22.90;99.90
12714;DHT22;6421;44.470;11.270;2022-09-09T17:19:33;22.80;99.90
12714;DHT22;6421;44.470;11.270;2022-09-09T17:21:59;22.80;99.90
12714;DHT22;6421;44.470;11.270;2022-09-09T17:24:26;22.70;99.90
12714;DHT22;6421;44.470;11.270;2022-09-09T17:26:52;22.70;99.90
12714;DHT22;6421;44.470;11.270;2022-09-09T17:29:19;22.60;99.90
12714;DHT22;6421;44.470;11.270;2022-09-09T17:31:45;22.60;99.90
12714;DHT22;6421;44.470;11.270;2022-09-09T17:34:10;22.80;99.90
12714;DHT22;6421;44.470;11.270;2022-09-09T17:36:37;22.40;99.90
12714;DHT22;6421;44.470;11.270;2022-09-09T17:39:04;22.40;99.90
12714;DHT22;6421;44.470;11.270;2022-09-09T17:41:32;22.30;99.90
12714;DHT22;6421;44.470;11.270;2022-09-09T17:43:59;22.30;99.90
12714;DHT22;6421;44.470;11.270;2022-09-09T17:46:27;22.20;99.90
12714;DHT22;6421;44.470;11.270;2022-09-09T17:48:57;22.20;99.90
12714;DHT22;6421;44.470;11.270;2022-09-09T17:51:25;22.10;99.90
12714;DHT22;6421;44.470;11.270;2022-09-09T17:53:54;22.10;99.90
12714;DHT22;6421;44.470;11.270;2022-09-09T17:56:22;22.00;99.90
12714;DHT22;6421;44.470;11.270;2022-09-09T17:58:52;22.00;99.90
12714;DHT22;6421;44.470;11.270;2022-09-09T18:01:21;21.90;99.90
12714;DHT22;6421;44.470;11.270;2022-09-09T18:03:48;21.90;99.90
12714;DHT22;6421;44.470;11.270;2022-09-09T18:06:17;21.90;99.90
12714;DHT22;6421;44.470;11.270;2022-09-09T18:08:48;21.80;99.90
12714;DHT22;6421;44.470;11.270;2022-09-09T18:11:15;21.70;99.90
12714;DHT22;6421;44.470;11.270;2022-09-09T18:13:40;21.70;99.90
12714;DHT22;6421;44.470;11.270;2022-09-09T18:16:07;21.70;99.90
12714;DHT22;6421;44.470;11.270;2022-09-09T18:18:33;21.60;99.90
12714;DHT22;6421;44.470;11.270;2022-09-09T18:21:05;21.60;99.90
12714;DHT22;6421;44.470;11.270;2022-09-09T18:23:34;21.60;99.90
12714;DHT22;6421;44.470;11.270;2022-09-09T18:26:00;21.50;99.90
12714;DHT22;6421;44.470;11.270;2022-09-09T18:28:26;21.50;99.90
12714;DHT22;6421;44.470;11.270;2022-09-09T18:30:52;21.50;99.90
12714;DHT22;6421;44.470;11.270;2022-09-09T18:33:17;21.40;99.90
12714;DHT22;6421;44.470;11.270;2022-09-09T18:35:43;21.40;99.90
12714;DHT22;6421;44.470;11.270;2022-09-09T18:38:11;21.40;99.90
12714;DHT22;6421;44.470;11.270;2022-09-09T18:40:36;21.30;99.90
12714;DHT22;6421;44.470;11.270;2022-09-09T18:43:02;21.30;99.90
12714;DHT22;6421;44.470;11.270;2022-09-09T18:45:28;21.30;99.90
12714;DHT22;6421;44.470;11.270;2022-09-09T18:47:53;21.20;99.90
12714;DHT22;6421;44.470;11.270;2022-09-09T18:50:21;21.20;99.90
12714;DHT22;6421;44.470;11.270;2022-09-09T18:52:46;21.20;99.90
12714;DHT22;6421;44.470;11.270;2022-09-09T18:55:12;21.20;99.90